Time;durP1;ratioP1;P1;durP2;ratioP2;P2;SDS_P1;SDS_P2;PMS_P1;PMS_P2;Temp;Humidity;BMP_temperature;BMP_pressure;BME280_temperature;BME280_humidity;BME280_pressure;Samples;Min_cycle;Max_cycle;Signal;HPM_P1;HPM_P2
2022/06/27 00:01:08;;;;;;;0.45;0.35;;;;;;;;;;21154701;28;20237;-74
2022/06/27 00:11:10;;;;;;;0.88;0.50;;;;;;;;;;21154024;28;20236;-73
2022/06/27 00:21:12;;;;;;;1.13;0.50;;;;;;;;;;21172184;28;20275;-73
2022/06/27 00:31:14;;;;;;;2.35;0.50;;;;;;;;;;21139675;28;20250;-73
2022/06/27 00:41:16;;;;;;;1.15;0.40;;;;;;;;;;21028430;28;20201;-73
2022/06/27 00:51:17;;;;;;;0.85;0.50;;;22.30;99.90;;;;;;21083528;28;20255;-73
2022/06/27 01:01:19;;;;;;;0.45;0.30;;;;;;;;;;21080238;22;20752;-74
2022/06/27 01:11:21;;;;;;;0.70;0.30;;;;;;;;;;21064842;28;20261;-76
2022/06/27 01:21:24;;;;;;;1.38;0.50;;;22.50;99.90;;;;;;21082288;28;20208;-77
2022/06/27 01:31:27;;;;;;;0.65;0.30;;;22.00;99.90;;;;;;21082240;28;20290;-75
2022/06/27 01:41:29;;;;;;;0.52;0.38;;;;;;;;;;21060753;28;20209;-75
2022/06/27 01:51:31;;;;;;;0.88;0.50;;;;;;;;;;21054916;28;20244;-74
2022/06/27 02:01:35;;;;;;;0.80;0.50;;;;;;;;;;21070328;28;20220;-74
2022/06/27 02:11:38;;;;;;;0.90;0.50;;;22.00;99.90;;;;;;21037453;28;20252;-74
2022/06/27 02:21:46;;;;;;;1.10;0.60;;;22.00;99.90;;;;;;21039413;28;20200;-74
2022/06/27 02:31:50;;;;;;;0.77;0.57;;;;;;;;;;21071043;28;20231;-74
2022/06/27 02:41:56;;;;;;;0.70;0.50;;;21.80;99.90;;;;;;21053595;28;20214;-75
2022/06/27 02:52:19;;;;;;;2.10;0.52;;;;;;;;;;21040054;28;20262;-74
2022/06/27 03:02:31;;;;;;;1.15;0.50;;;;;;;;;;21052769;28;20274;-74
2022/06/27 03:12:42;;;;;;;1.13;0.65;;;;;;;;;;21055896;28;20766;-74
2022/06/27 03:22:43;;;;;;;0.88;0.60;;;;;;;;;;21119812;28;20268;-74
2022/06/27 03:32:45;;;;;;;0.68;0.50;;;;;;;;;;21110186;28;20254;-76
2022/06/27 03:42:50;;;;;;;0.85;0.40;;;;;;;;;;21087709;28;20200;-77
2022/06/27 03:52:54;;;;;;;1.58;0.68;;;;;;;;;;21081740;28;20245;-77
2022/06/27 04:02:56;;;;;;;0.80;0.60;;;;;;;;;;21075113;28;20216;-76
2022/06/27 04:13:06;;;;;;;1.35;0.68;;;;;;;;;;21061841;28;20277;-76
2022/06/27 04:23:27;;;;;;;0.73;0.60;;;;;;;;;;21122705;28;20209;-77
2022/06/27 04:33:48;;;;;;;1.15;0.50;;;;;;;;;;21161328;28;20222;-77
2022/06/27 04:43:49;;;;;;;0.88;0.60;;;;;;;;;;21127174;28;20615;-77
2022/06/27 04:53:52;;;;;;;1.70;0.60;;;;;;;;;;21090551;28;20231;-74
2022/06/27 05:03:54;;;;;;;0.75;0.52;;;;;;;;;;21056831;28;20270;-75
2022/06/27 05:14:01;;;;;;;0.70;0.50;;;;;;;;;;21058458;28;20236;-75
2022/06/27 05:24:29;;;;;;;0.60;0.40;;;;;;;;;;21073556;28;20223;-74
2022/06/27 05:34:31;;;;;;;0.55;0.30;;;;;;;;;;21056019;28;20274;-74
2022/06/27 05:44:33;;;;;;;0.30;0.30;;;;;;;;;;21073631;28;20549;-74
2022/06/27 05:54:35;;;;;;;0.55;0.40;;;;;;;;;;21071357;28;20689;-74
2022/06/27 06:04:39;;;;;;;1.85;0.50;;;;;;;;;;21069546;28;20239;-75
2022/06/27 06:14:44;;;;;;;1.17;0.55;;;21.80;99.90;;;;;;21063837;28;20219;-74
2022/06/27 06:24:49;;;;;;;1.88;0.85;;;;;;;;;;21074174;28;20789;-75
2022/06/27 06:34:51;;;;;;;1.02;0.57;;;;;;;;;;21071506;28;20216;-75
2022/06/27 06:44:53;;;;;;;1.02;0.57;;;;;;;;;;21043659;28;20248;-75
2022/06/27 06:55:03;;;;;;;1.88;0.50;;;;;;;;;;21081764;28;20273;-74
2022/06/27 07:05:11;;;;;;;2.00;0.50;;;;;;;;;;21105112;22;20239;-74
2022/06/27 07:15:13;;;;;;;1.55;0.70;;;;;;;;;;21017077;28;20753;-74
2022/06/27 07:25:15;;;;;;;0.88;0.55;;;;;;;;;;20979567;28;20826;-75
2022/06/27 07:35:17;;;;;;;1.67;0.63;;;;;;;;;;20929037;28;20437;-74
2022/06/27 07:45:19;;;;;;;0.77;0.60;;;;;;;;;;20937798;28;20255;-74
2022/06/27 07:55:24;;;;;;;0.98;0.65;;;;;;;;;;20913802;28;20213;-74
2022/06/27 08:05:28;;;;;;;0.88;0.70;;;;;;;;;;20893973;28;20209;-74
2022/06/27 08:15:30;;;;;;;2.80;0.82;;;;;;;;;;20894083;28;20206;-74
2022/06/27 08:25:33;;;;;;;1.23;0.57;;;;;;;;;;20993941;28;20200;-74
2022/06/27 08:35:35;;;;;;;1.02;0.70;;;;;;;;;;20975259;28;20224;-74
2022/06/27 08:45:37;;;;;;;0.80;0.55;;;;;;;;;;20992515;28;20773;-74
2022/06/27 08:55:46;;;;;;;1.48;0.80;;;22.30;99.90;;;;;;20973389;28;20692;-75
2022/06/27 09:05:59;;;;;;;0.85;0.60;;;22.50;99.90;;;;;;20972727;28;20213;-72
2022/06/27 09:16:01;;;;;;;1.30;0.70;;;;;;;;;;20972300;28;20247;-73
2022/06/27 09:26:06;;;;;;;1.15;0.75;;;;;;;;;;20988178;28;20593;-75
2022/06/27 09:36:15;;;;;;;1.17;0.65;;;;;;;;;;20987735;28;20206;-75
2022/06/27 09:46:18;;;;;;;0.95;0.73;;;;;;;;;;20983149;28;20211;-74
2022/06/27 09:56:20;;;;;;;1.65;0.80;;;;;;;;;;20984562;28;20697;-74
2022/06/27 10:06:23;;;;;;;2.22;0.80;;;;;;;;;;20974760;28;20221;-75
2022/06/27 10:16:25;;;;;;;1.65;0.90;;;;;;;;;;20980076;28;20272;-75
2022/06/27 10:26:41;;;;;;;1.40;0.88;;;;;;;;;;20912203;28;20216;-74
2022/06/27 10:36:42;;;;;;;0.50;0.30;;;;;;;;;;20930513;28;20238;-75
2022/06/27 10:46:44;;;;;;;0.50;0.40;;;;;;;;;;20984987;28;20205;-74
2022/06/27 10:56:47;;;;;;;0.47;0.40;;;;;;;;;;20985983;28;20202;-74
2022/06/27 11:06:59;;;;;;;0.75;0.50;;;;;;;;;;20966746;28;20213;-74
2022/06/27 11:17:07;;;;;;;1.02;0.65;;;;;;;;;;20985592;28;20218;-74
2022/06/27 11:27:08;;;;;;;0.50;0.40;;;;;;;;;;20984791;28;20558;-74
2022/06/27 11:37:11;;;;;;;0.45;0.40;;;;;;;;;;20966157;28;20217;-75
2022/06/27 11:47:13;;;;;;;0.70;0.60;;;;;;;;;;20995996;28;20238;-74
2022/06/27 11:57:36;;;;;;;0.80;0.60;;;;;;;;;;20994236;28;20225;-75
2022/06/27 12:07:56;;;;;;;0.55;0.45;;;;;;;;;;20933120;28;20220;-74
2022/06/27 12:17:59;;;;;;;0.60;0.50;;;;;;;;;;20963753;28;20627;-75
2022/06/27 12:28:01;;;;;;;0.40;0.40;;;;;;;;;;20994867;28;20226;-75
2022/06/27 12:38:03;;;;;;;0.70;0.52;;;;;;;;;;20993186;28;20208;-75
2022/06/27 12:48:06;;;;;;;0.70;0.50;;;;;;;;;;20974512;28;20709;-76
2022/06/27 12:58:08;;;;;;;0.50;0.40;;;;;;;;;;20975804;28;20215;-75
2022/06/27 13:08:10;;;;;;;1.55;0.55;;;;;;;;;;20956771;28;20221;-77
2022/06/27 13:18:11;;;;;;;0.60;0.40;;;;;;;;;;20974510;28;20265;-71
2022/06/27 13:28:13;;;;;;;0.95;0.73;;;;;;;;;;20971428;28;20283;-73
2022/06/27 13:38:15;;;;;;;1.23;0.70;;;;;;;;;;20985539;28;20213;-76
2022/06/27 13:48:17;;;;;;;0.50;0.40;;;;;;;;;;20986713;28;20219;-74
2022/06/27 13:58:19;;;;;;;0.50;0.43;;;;;;;;;;20966495;28;20593;-74
2022/06/27 14:08:21;;;;;;;0.77;0.40;;;;;;;;;;20983382;28;20718;-74
2022/06/27 14:18:22;;;;;;;0.30;0.30;;;;;;;;;;20985033;28;20416;-74
2022/06/27 14:28:24;;;;;;;1.00;0.40;;;;;;;;;;20983016;28;20218;-75
2022/06/27 14:38:26;;;;;;;0.55;0.30;;;;;;;;;;20968692;28;20623;-75
2022/06/27 14:48:27;;;;;;;0.47;0.43;;;;;;;;;;20984196;28;20250;-74
2022/06/27 14:58:29;;;;;;;1.98;0.40;;;;;;;;;;20982028;28;20271;-73
2022/06/27 15:08:31;;;;;;;0.40;0.35;;;;;;;;;;20979378;28;20278;-75
2022/06/27 15:18:33;;;;;;;0.57;0.50;;;;;;;;;;20991714;28;20221;-71
2022/06/27 15:28:38;;;;;;;0.30;0.30;;;;;;;;;;20989631;28;20228;-73
2022/06/27 15:38:41;;;;;;;0.82;0.47;;;;;;;;;;20990935;28;20208;-73
2022/06/27 15:48:42;;;;;;;0.80;0.50;;;;;;;;;;20985727;28;20224;-73
2022/06/27 15:58:44;;;;;;;0.30;0.30;;;;;;;;;;20993580;28;20246;-75
2022/06/27 16:08:46;;;;;;;0.55;0.35;;;;;;;;;;20922226;28;20242;-73
2022/06/27 16:18:48;;;;;;;0.20;0.20;;;;;;;;;;20904835;28;20298;-73
2022/06/27 16:28:50;;;;;;;0.55;0.40;;;;;;;;;;20886033;28;20247;-73
2022/06/27 16:38:52;;;;;;;0.43;0.38;;;;;;;;;;20905965;28;20211;-73
2022/06/27 16:48:53;;;;;;;0.38;0.32;;;;;;;;;;20902539;28;20218;-73
2022/06/27 16:58:56;;;;;;;0.20;0.20;;;;;;;;;;20916517;28;20693;-71
2022/06/27 17:08:58;;;;;;;0.40;0.40;;;;;;;;;;20972652;28;20229;-73
2022/06/27 17:19:00;;;;;;;0.30;0.30;;;;;;;;;;20982101;28;20219;-72
2022/06/27 17:29:01;;;;;;;0.40;0.40;;;;;;;;;;20982642;28;20272;-72
2022/06/27 17:39:03;;;;;;;0.40;0.30;;;;;;;;;;20980579;28;20747;-75
2022/06/27 17:49:06;;;;;;;0.20;0.20;;;;;;;;;;20965285;28;20213;-73
2022/06/27 17:59:08;;;;;;;0.43;0.30;;;;;;;;;;20976816;28;20216;-72
2022/06/27 18:09:10;;;;;;;0.20;0.20;;;;;;;;;;20967646;28;20216;-72
2022/06/27 18:19:12;;;;;;;0.80;0.47;;;;;;;;;;20918098;28;20219;-72
2022/06/27 18:29:13;;;;;;;3.45;0.47;;;;;;;;;;20955988;28;20281;-74
2022/06/27 18:39:15;;;;;;;1.55;0.40;;;;;;;;;;20980050;28;20227;-72
2022/06/27 18:49:26;;;;;;;0.32;0.30;;;;;;;;;;20979898;28;20218;-72
2022/06/27 18:59:28;;;;;;;0.45;0.30;;;;;;;;;;20996510;28;20240;-73
2022/06/27 19:09:30;;;;;;;0.20;0.20;;;;;;;;;;21122400;22;20220;-75
2022/06/27 19:19:32;;;;;;;0.70;0.30;;;;;;;;;;21116436;28;20261;-75
2022/06/27 19:29:34;;;;;;;0.60;0.32;;;;;;;;;;20983168;28;20276;-75
2022/06/27 19:39:35;;;;;;;0.40;0.30;;;;;;;;;;21020456;28;20259;-75
2022/06/27 19:49:37;;;;;;;0.80;0.47;;;;;;;;;;20991609;28;20222;-75
2022/06/27 19:59:39;;;;;;;1.27;0.50;;;;;;;;;;21059567;28;20213;-75
2022/06/27 20:09:41;;;;;;;1.15;0.40;;;22.70;99.90;;;;;;21059276;28;20297;-75
2022/06/27 20:19:44;;;;;;;0.80;0.28;;;;;;;;;;21088811;28;20249;-75
2022/06/27 20:29:46;;;;;;;0.70;0.35;;;;;;;;;;21037159;28;20217;-76
2022/06/27 20:39:48;;;;;;;0.40;0.35;;;22.50;99.90;;;;;;21056151;28;20196;-75
2022/06/27 20:49:51;;;;;;;0.35;0.30;;;;;;;;;;21128559;28;20235;-75
2022/06/27 20:59:53;;;;;;;2.03;0.40;;;22.40;99.90;;;;;;21130083;28;20205;-75
2022/06/27 21:20:17;;;;;;;0.90;0.77;;;;;;;;;;21103599;28;20381;-75
2022/06/27 21:30:18;;;;;;;0.40;0.30;;;;;;;;;;21055727;28;20232;-76
2022/06/27 21:40:20;;;;;;;0.45;0.32;;;;;;;;;;21054666;28;20182;-75
2022/06/27 21:50:22;;;;;;;1.02;0.40;;;;;;;;;;21072018;28;20225;-75
2022/06/27 22:00:30;;;;;;;0.32;0.30;;;;;;;;;;21054012;28;20182;-76
2022/06/27 22:10:32;;;;;;;0.70;0.30;;;;;;;;;;21071669;28;20208;-75
2022/06/27 22:20:35;;;;;;;0.70;0.30;;;;;;;;;;21052883;28;20202;-75
2022/06/27 22:30:37;;;;;;;0.50;0.40;;;;;;;;;;21071414;28;20478;-75
2022/06/27 22:40:38;;;;;;;0.55;0.30;;;;;;;;;;21155290;28;20250;-76
2022/06/27 22:50:42;;;;;;;0.30;0.30;;;;;;;;;;21135847;28;20221;-75
2022/06/27 23:00:43;;;;;;;0.30;0.30;;;;;;;;;;21135482;28;20711;-75
2022/06/27 23:10:45;;;;;;;0.30;0.30;;;;;;;;;;21082151;28;20767;-75
2022/06/27 23:20:47;;;;;;;0.30;0.30;;;;;;;;;;21131737;28;20673;-75
2022/06/27 23:30:48;;;;;;;0.40;0.30;;;;;;;;;;21134461;28;20271;-76
2022/06/27 23:40:50;;;;;;;0.20;0.20;;;;;;;;;;21163475;28;20199;-75
2022/06/27 23:50:52;;;;;;;0.60;0.50;;;;;;;;;;21149661;28;20257;-75
